Time;durP1;ratioP1;P1;durP2;ratioP2;P2;SDS_P1;SDS_P2;PMS_P1;PMS_P2;Temp;Humidity;BMP_temperature;BMP_pressure;BME280_temperature;BME280_humidity;BME280_pressure;Samples;Min_cycle;Max_cycle;Signal;HPM_P1;HPM_P2
2023/01/25 00:02:26;;;;;;;9.13;6.47;;;;;;;0.30;85.42;103016.69;5030510;28;20292;-81
2023/01/25 00:04:52;;;;;;;9.13;6.80;;;;;;;0.31;85.52;103014.94;5031316;28;20202;-81
2023/01/25 00:07:19;;;;;;;10.07;6.60;;;;;;;0.32;85.56;103014.09;5034011;28;20663;-81
2023/01/25 00:09:45;;;;;;;9.47;7.50;;;;;;;0.30;85.47;103006.19;5031301;28;20670;-81
2023/01/25 00:12:12;;;;;;;9.93;6.57;;;;;;;0.31;85.72;103001.84;5032986;28;20206;-81
2023/01/25 00:14:38;;;;;;;10.77;6.83;;;;;;;0.29;85.69;103004.44;5036424;28;20206;-81
2023/01/25 00:17:06;;;;;;;11.57;7.47;;;;;;;0.29;85.55;102995.69;5033373;28;20217;-82
2023/01/25 00:19:32;;;;;;;8.80;7.37;;;;;;;0.28;85.77;102996.53;5033777;28;20249;-81
2023/01/25 00:21:59;;;;;;;8.67;6.43;;;;;;;0.28;85.74;103007.03;5035218;28;20670;-81
2023/01/25 00:24:25;;;;;;;10.90;7.23;;;;;;;0.27;85.53;103006.13;5036157;28;20205;-81
2023/01/25 00:26:52;;;;;;;9.30;6.63;;;;;;;0.26;85.48;102998.25;5031919;28;20234;-82
2023/01/25 00:29:18;;;;;;;10.07;6.57;;;;;;;0.24;85.77;102989.47;5032415;28;20857;-82
2023/01/25 00:31:53;;;;;;;7.60;5.50;;;;;;;0.23;85.67;102979.84;5037748;28;20222;-80
2023/01/25 00:34:42;;;;;;;9.20;6.07;;;;;;;0.20;85.68;102978.03;5038103;28;20209;-81
2023/01/25 00:37:19;;;;;;;9.83;6.90;;;;;;;0.17;85.74;102983.28;5036680;28;20902;-81
2023/01/25 00:39:45;;;;;;;8.60;6.33;;;;;;;0.17;85.77;102971.91;5033677;28;20262;-81
2023/01/25 00:42:12;;;;;;;10.80;6.27;;;;;;;0.16;85.91;102985.88;5032861;28;20225;-82
2023/01/25 00:44:39;;;;;;;8.60;6.50;;;;;;;0.14;86.08;102977.09;5036530;28;20285;-82
2023/01/25 00:47:06;;;;;;;9.33;6.13;;;;;;;0.12;85.93;102976.19;5037995;28;20681;-81
2023/01/25 00:49:34;;;;;;;8.23;6.17;;;;;;;0.10;86.08;102970.91;5025858;28;20199;-81
2023/01/25 00:52:00;;;;;;;9.43;6.50;;;;;;;0.10;86.23;102972.66;5028198;28;20214;-81
2023/01/25 00:54:27;;;;;;;9.60;6.03;;;;;;;0.08;86.39;102966.50;5030427;28;20598;-81
2023/01/25 00:56:55;;;;;;;11.07;6.43;;;;;;;0.04;86.40;102964.66;5029032;28;20221;-82
2023/01/25 00:59:22;;;;;;;11.90;7.23;;;;;;;0.03;86.44;102968.16;5034295;28;20254;-81
2023/01/25 01:01:48;;;;;;;10.00;6.17;;;;;;;0.02;86.49;102963.75;5028124;28;20214;-82
2023/01/25 01:04:15;;;;;;;7.70;6.00;;;;;;;0.01;86.68;102952.41;5035582;28;20202;-80
2023/01/25 01:06:43;;;;;;;8.50;5.87;;;;;;;-0.01;86.61;102960.25;5035282;28;20232;-80
2023/01/25 01:09:13;;;;;;;9.63;6.13;;;;;;;-0.02;86.79;102965.47;5033480;28;20579;-81
2023/01/25 01:11:39;;;;;;;8.17;5.47;;;;;;;-0.04;86.85;102962.81;5034725;28;20246;-81
2023/01/25 01:14:06;;;;;;;9.07;5.87;;;;;;;-0.05;86.84;102965.41;5038096;28;20217;-81
2023/01/25 01:16:32;;;;;;;9.13;5.57;;;;;;;-0.07;86.99;102962.75;5022807;28;20229;-82
2023/01/25 01:18:59;;;;;;;8.80;6.37;;;;;;;-0.08;87.20;102962.75;5034196;28;20237;-82
2023/01/25 01:21:25;;;;;;;9.80;6.43;;;;;;;-0.12;87.43;102964.41;5033767;28;20206;-82
2023/01/25 01:23:53;;;;;;;8.50;6.00;;;;;;;-0.12;87.58;102959.16;5035043;28;20209;-81
2023/01/25 01:26:20;;;;;;;11.00;6.00;;;;;;;-0.09;87.63;102963.59;5035614;28;20223;-81
2023/01/25 01:28:47;;;;;;;7.33;5.33;;;;;;;-0.11;87.86;102958.31;5036124;28;20199;-81
2023/01/25 01:31:16;;;;;;;10.60;6.30;;;;;;;-0.11;88.14;102958.31;5035706;28;20226;-81
2023/01/25 01:33:43;;;;;;;9.30;6.97;;;;;;;-0.13;88.24;102951.28;5026567;28;20215;-81
2023/01/25 01:36:11;;;;;;;13.73;8.37;;;;;;;-0.13;88.34;102952.16;5031297;28;20257;-81
2023/01/25 01:38:37;;;;;;;13.47;7.97;;;;;;;-0.14;88.47;102955.63;5034557;28;20230;-81
2023/01/25 01:41:06;;;;;;;10.27;7.77;;;;;;;-0.14;88.76;102945.16;5033153;28;20217;-80
2023/01/25 01:43:32;;;;;;;16.70;9.57;;;;;;;-0.14;88.83;102950.41;5027579;28;20711;-81
2023/01/25 01:46:00;;;;;;;14.77;9.23;;;;;;;-0.12;88.97;102947.81;5031010;28;20784;-82
2023/01/25 01:48:36;;;;;;;13.53;8.87;;;;;;;-0.12;89.01;102940.84;5034632;28;20209;-80
2023/01/25 01:51:09;;;;;;;15.63;9.30;;;;;;;-0.12;89.10;102937.34;5033265;28;20231;-81
2023/01/25 01:53:37;;;;;;;13.03;7.87;;;;;;;-0.11;89.13;102947.84;5031435;28;20198;-81
2023/01/25 01:56:10;;;;;;;14.23;9.00;;;;;;;-0.12;89.36;102932.09;5024268;28;20229;-81
2023/01/25 01:58:37;;;;;;;13.03;8.93;;;;;;;-0.14;89.11;102934.69;5039445;28;20670;-81
2023/01/25 02:01:04;;;;;;;13.93;8.70;;;;;;;-0.13;89.37;102931.22;5032192;28;20207;-81
2023/01/25 02:03:31;;;;;;;11.80;7.80;;;;;;;-0.13;89.42;102925.97;5033251;28;20206;-81
2023/01/25 02:06:02;;;;;;;11.43;6.93;;;;;;;-0.13;89.50;102927.72;5031479;28;20230;-81
2023/01/25 02:08:33;;;;;;;12.00;7.20;;;;;;;-0.14;89.35;102921.59;5028705;28;20202;-81
2023/01/25 02:11:00;;;;;;;11.03;6.93;;;;;;;-0.14;89.66;102920.72;5032306;28;20249;-81
2023/01/25 02:13:29;;;;;;;10.73;7.37;;;;;;;-0.16;89.80;102914.56;5029679;28;20214;-81
2023/01/25 02:15:56;;;;;;;11.37;7.73;;;;;;;-0.16;89.71;102917.19;5033748;28;20233;-82
2023/01/25 02:18:24;;;;;;;9.93;5.60;;;;;;;-0.16;89.85;102922.41;5028984;28;20210;-81
2023/01/25 02:20:52;;;;;;;7.67;4.80;;;;;;;-0.16;89.87;102919.81;5029242;28;20222;-80
2023/01/25 02:23:29;;;;;;;8.60;5.50;;;;;;;-0.16;89.74;102923.31;5029126;28;20213;-80
2023/01/25 02:26:01;;;;;;;9.20;5.80;;;;;;;-0.17;90.15;102908.44;5031854;28;20221;-81
2023/01/25 02:28:32;;;;;;;8.77;5.33;;;;;;;-0.16;90.16;102909.31;5032234;28;20214;-81
2023/01/25 02:30:58;;;;;;;7.57;4.73;;;;;;;-0.16;90.30;102898.84;5033285;28;20666;-81
2023/01/25 02:33:26;;;;;;;8.70;5.30;;;;;;;-0.15;90.35;102906.72;5027583;28;20214;-80
2023/01/25 02:36:00;;;;;;;6.47;4.63;;;;;;;-0.16;90.56;102904.09;5030736;28;20218;-82
2023/01/25 02:38:27;;;;;;;10.40;5.83;;;;;;;-0.15;90.52;102901.50;5029335;28;20289;-81
2023/01/25 02:40:58;;;;;;;7.60;4.70;;;;;;;-0.14;90.67;102903.25;5032150;28;20230;-81
2023/01/25 02:43:29;;;;;;;9.07;5.73;;;;;;;-0.14;90.58;102903.25;5032123;28;20206;-81
2023/01/25 02:46:00;;;;;;;7.73;5.27;;;;;;;-0.12;90.80;102900.66;5037006;28;20722;-82
2023/01/25 02:48:26;;;;;;;9.27;6.80;;;;;;;-0.12;91.02;102905.91;5031247;28;20205;-80
2023/01/25 02:50:53;;;;;;;9.43;6.23;;;;;;;-0.12;91.01;102903.28;5030987;28;20198;-81
2023/01/25 02:53:19;;;;;;;9.67;5.53;;;;;;;-0.10;91.14;102899.84;5032168;28;20316;-81
2023/01/25 02:55:46;;;;;;;8.33;5.03;;;;;;;-0.09;91.18;102898.09;5023327;28;20233;-81
2023/01/25 02:58:14;;;;;;;10.30;6.67;;;;;;;-0.10;91.32;102889.38;5030767;28;20202;-80
2023/01/25 03:00:40;;;;;;;10.53;6.13;;;;;;;-0.09;91.40;102893.75;5028918;28;20221;-81
2023/01/25 03:03:07;;;;;;;9.07;6.07;;;;;;;-0.10;91.63;102885.88;5031236;28;20225;-81
2023/01/25 03:05:33;;;;;;;9.07;6.40;;;;;;;-0.12;91.49;102880.59;5027966;28;20706;-80
2023/01/25 03:07:59;;;;;;;13.37;7.30;;;;;;;-0.12;91.68;102879.72;5026219;28;20199;-81
2023/01/25 03:10:26;;;;;;;12.00;7.13;;;;;;;-0.12;91.64;102880.59;5023102;28;20205;-82
2023/01/25 03:12:53;;;;;;;13.10;8.23;;;;;;;-0.11;92.00;102873.63;5021527;28;20686;-81
2023/01/25 03:15:21;;;;;;;12.87;7.50;;;;;;;-0.10;91.92;102863.19;5023594;28;20241;-81
2023/01/25 03:17:47;;;;;;;11.23;6.70;;;;;;;-0.09;92.23;102867.56;5031062;28;20891;-80
2023/01/25 03:20:14;;;;;;;12.30;7.83;;;;;;;-0.07;92.30;102859.72;5033918;28;20217;-81
2023/01/25 03:22:40;;;;;;;15.53;8.93;;;;;;;-0.06;92.38;102859.75;5030897;28;20205;-81
2023/01/25 03:25:08;;;;;;;11.33;7.87;;;;;;;-0.05;92.40;102856.28;5026143;28;20230;-81
2023/01/25 03:27:34;;;;;;;12.23;7.03;;;;;;;-0.05;92.42;102856.28;5035590;28;20205;-81
2023/01/25 03:30:01;;;;;;;13.37;8.27;;;;;;;-0.06;92.54;102854.50;5032620;28;20226;-82
2023/01/25 03:32:29;;;;;;;11.50;6.87;;;;;;;-0.06;92.55;102856.25;5030512;28;20198;-80
2023/01/25 03:34:55;;;;;;;8.93;5.60;;;;;;;-0.06;92.58;102858.88;5027700;28;20202;-81
2023/01/25 03:37:21;;;;;;;9.27;6.53;;;;;;;-0.06;92.55;102854.50;5027379;28;20209;-81
2023/01/25 03:39:48;;;;;;;11.27;7.37;;;;;;;-0.07;92.58;102851.88;5025222;28;20222;-80
2023/01/25 03:42:14;;;;;;;11.33;7.53;;;;;;;-0.07;92.74;102851.88;5020322;28;20206;-82
2023/01/25 03:44:41;;;;;;;12.27;7.03;;;;;;;-0.08;92.83;102847.47;5023259;28;20217;-82
2023/01/25 03:47:07;;;;;;;11.47;6.53;;;;;;;-0.07;92.86;102849.25;5025196;28;20210;-81
2023/01/25 03:49:35;;;;;;;10.23;7.00;;;;;;;-0.08;92.75;102858.84;5022036;28;20201;-81
2023/01/25 03:52:01;;;;;;;11.47;7.67;;;;;;;-0.09;93.11;102854.47;5020337;28;20207;-81
2023/01/25 03:54:28;;;;;;;12.57;7.70;;;;;;;-0.09;92.87;102843.09;5029946;28;20202;-81
2023/01/25 03:56:54;;;;;;;10.83;7.70;;;;;;;-0.11;93.01;102835.22;5030459;28;20580;-81
2023/01/25 03:59:21;;;;;;;12.43;7.23;;;;;;;-0.11;92.98;102829.97;5024853;28;20664;-82
2023/01/25 04:01:47;;;;;;;12.43;7.33;;;;;;;-0.12;93.15;102829.97;5034804;28;20672;-82
2023/01/25 04:04:14;;;;;;;12.77;6.40;;;;;;;-0.12;92.90;102830.84;5025931;28;20248;-81
2023/01/25 04:06:42;;;;;;;10.90;6.27;;;;;;;-0.14;92.90;102824.69;5029722;28;20234;-81
2023/01/25 04:09:08;;;;;;;10.30;6.63;;;;;;;-0.14;92.90;102829.94;5021315;28;20575;-82
2023/01/25 04:11:35;;;;;;;14.67;8.23;;;;;;;-0.15;93.28;102822.94;5026530;28;20210;-81
2023/01/25 04:14:01;;;;;;;16.67;9.07;;;;;;;-0.14;93.61;102827.31;5028615;28;20198;-81
2023/01/25 04:16:30;;;;;;;14.27;8.73;;;;;;;-0.13;93.33;102820.34;5029371;28;20233;-81
2023/01/25 04:18:56;;;;;;;12.87;8.03;;;;;;;-0.15;93.71;102807.22;5023589;28;20297;-81
2023/01/25 04:21:23;;;;;;;17.73;9.07;;;;;;;-0.14;93.70;102805.47;5026169;28;20237;-81
2023/01/25 04:23:51;;;;;;;13.90;8.53;;;;;;;-0.14;94.02;102803.75;5028970;28;20198;-81
2023/01/25 04:26:17;;;;;;;16.97;8.33;;;;;;;-0.12;93.82;102801.16;5019094;28;20248;-80
2023/01/25 04:28:44;;;;;;;19.00;11.90;;;;;;;-0.12;94.20;102799.41;5029279;28;20202;-81
2023/01/25 04:31:10;;;;;;;16.70;10.17;;;;;;;-0.10;94.24;102794.19;5024348;28;20836;-81
2023/01/25 04:33:36;;;;;;;14.30;8.93;;;;;;;-0.09;94.34;102794.22;5020614;28;20199;-81
2023/01/25 04:36:04;;;;;;;15.10;8.57;;;;;;;-0.10;94.52;102795.06;5023160;28;20227;-80
2023/01/25 04:38:31;;;;;;;12.03;8.00;;;;;;;-0.10;94.41;102797.69;5032639;28;20221;-81
2023/01/25 04:40:59;;;;;;;13.40;7.43;;;;;;;-0.09;94.60;102791.59;5033247;28;20222;-81
2023/01/25 04:43:26;;;;;;;14.47;7.80;;;;;;;-0.10;94.73;102791.56;5025876;28;20679;-80
2023/01/25 04:45:52;;;;;;;12.20;7.23;;;;;;;-0.09;94.86;102791.59;5029195;28;21580;-81
2023/01/25 04:48:19;;;;;;;15.73;9.20;;;;;;;-0.08;95.01;102785.50;5031054;28;20804;-81
2023/01/25 04:50:45;;;;;;;15.67;8.67;;;;;;;-0.06;95.23;102785.53;5026951;28;20626;-82
2023/01/25 04:53:12;;;;;;;15.67;8.97;;;;;;;-0.05;95.22;102789.91;5024739;28;20289;-82
2023/01/25 04:55:39;;;;;;;16.20;10.07;;;;;;;-0.05;95.22;102787.28;5022255;28;20230;-81
2023/01/25 04:58:07;;;;;;;15.73;9.10;;;;;;;-0.05;95.32;102785.56;5031208;28;20215;-81
2023/01/25 05:00:33;;;;;;;16.20;10.10;;;;;;;-0.06;95.24;102785.53;5023572;28;20222;-81
2023/01/25 05:03:00;;;;;;;16.10;10.40;;;;;;;-0.07;95.49;102774.16;5034741;28;20218;-82
2023/01/25 05:05:26;;;;;;;15.87;9.13;;;;;;;-0.06;95.60;102773.31;5029739;28;20713;-81
2023/01/25 05:07:53;;;;;;;18.23;10.43;;;;;;;-0.06;95.68;102781.19;5027242;28;20211;-82
2023/01/25 05:10:19;;;;;;;16.97;9.03;;;;;;;-0.05;95.71;102776.81;5038024;28;20214;-82
2023/01/25 05:12:46;;;;;;;20.87;11.40;;;;;;;-0.07;95.83;102774.16;5033475;28;20258;-81
2023/01/25 05:15:14;;;;;;;22.77;12.13;;;;;;;-0.05;96.00;102780.31;5033440;28;20234;-81
2023/01/25 05:17:40;;;;;;;21.20;12.23;;;;;;;-0.06;95.92;102783.78;5031565;28;20214;-82
2023/01/25 05:20:08;;;;;;;21.17;12.50;;;;;;;-0.06;96.20;102772.44;5036241;28;20240;-81
2023/01/25 05:22:34;;;;;;;22.00;13.80;;;;;;;-0.06;96.16;102770.69;5037825;28;20202;-81
2023/01/25 05:25:02;;;;;;;26.87;14.10;;;;;;;-0.05;96.30;102763.72;5033920;28;20604;-81
2023/01/25 05:27:28;;;;;;;21.17;10.83;;;;;;;-0.03;96.33;102762.00;5030089;28;20233;-82
2023/01/25 05:29:54;;;;;;;23.97;11.27;;;;;;;-0.02;96.45;102755.91;5030602;28;20210;-82
2023/01/25 05:32:23;;;;;;;25.10;12.40;;;;;;;-0.03;96.46;102759.38;5032358;28;20696;-82
2023/01/25 05:34:50;;;;;;;18.93;10.27;;;;;;;-0.05;96.53;102755.88;5031682;28;20726;-81
2023/01/25 05:37:19;;;;;;;19.47;10.20;;;;;;;-0.09;96.68;102754.94;5030256;28;20202;-81
2023/01/25 05:39:46;;;;;;;18.00;9.93;;;;;;;-0.08;96.90;102750.56;5032315;28;20213;-81
2023/01/25 05:42:14;;;;;;;21.47;11.17;;;;;;;-0.09;96.90;102751.44;5027909;28;20207;-82
2023/01/25 05:44:41;;;;;;;20.30;11.40;;;;;;;-0.09;97.14;102746.19;5034351;28;20207;-81
2023/01/25 05:47:09;;;;;;;22.90;11.80;;;;;;;-0.08;97.12;102746.22;5030858;28;20210;-82
2023/01/25 05:49:37;;;;;;;23.97;11.60;;;;;;;-0.07;97.13;102747.09;5033414;28;20206;-81
2023/01/25 05:52:03;;;;;;;22.77;11.53;;;;;;;-0.09;97.42;102747.06;5026822;28;20663;-81
2023/01/25 05:54:30;;;;;;;25.47;12.53;;;;;;;-0.09;97.49;102744.47;5024694;28;20202;-82
2023/01/25 05:56:56;;;;;;;25.00;12.53;;;;;;;-0.09;97.49;102744.47;5029345;28;20233;-82
2023/01/25 05:59:23;;;;;;;23.70;11.60;;;;;;;-0.08;97.58;102746.22;5027124;28;20214;-81
2023/01/25 06:01:49;;;;;;;19.90;11.30;;;;;;;-0.08;97.67;102748.84;5031872;28;20257;-81
2023/01/25 06:04:16;;;;;;;16.87;11.13;;;;;;;-0.08;97.67;102746.22;5030461;28;20595;-81
2023/01/25 06:06:44;;;;;;;20.27;10.00;;;;;;;-0.08;97.80;102747.97;5032790;28;20233;-81
2023/01/25 06:09:11;;;;;;;19.50;9.93;;;;;;;-0.10;97.84;102744.44;5028480;28;20206;-81
2023/01/25 06:11:37;;;;;;;20.03;10.67;;;;;;;-0.13;97.97;102740.03;5031637;28;20225;-81
2023/01/25 06:14:04;;;;;;;17.57;10.13;;;;;;;-0.12;98.23;102739.16;5036967;28;20229;-82
2023/01/25 06:16:30;;;;;;;18.03;9.10;;;;;;;-0.13;97.97;102737.41;5032004;28;20226;-81
2023/01/25 06:18:57;;;;;;;18.07;9.87;;;;;;;-0.13;98.13;102737.41;5031026;28;20207;-82
2023/01/25 06:21:23;;;;;;;19.83;11.47;;;;;;;-0.12;98.13;102730.44;5026652;28;20230;-82
2023/01/25 06:23:51;;;;;;;17.93;10.67;;;;;;;-0.12;98.11;102725.19;5029653;28;20210;-81
2023/01/25 06:26:18;;;;;;;17.67;9.90;;;;;;;-0.13;98.21;102726.94;5028780;28;20237;-80
2023/01/25 06:28:44;;;;;;;17.17;10.47;;;;;;;-0.14;97.99;102725.16;5026441;28;20199;-81
2023/01/25 06:31:12;;;;;;;18.03;9.63;;;;;;;-0.13;98.60;102734.78;5027369;28;20217;-81
2023/01/25 06:33:39;;;;;;;22.13;11.93;;;;;;;-0.14;98.70;102732.16;5029525;28;20209;-82
2023/01/25 06:36:08;;;;;;;18.77;9.93;;;;;;;-0.12;98.64;102733.94;5024823;28;20231;-82
2023/01/25 06:38:34;;;;;;;23.00;12.40;;;;;;;-0.11;98.84;102729.56;5034098;28;20717;-82
2023/01/25 06:41:03;;;;;;;19.00;11.43;;;;;;;-0.10;99.00;102723.47;5025192;28;20608;-82
2023/01/25 06:43:31;;;;;;;21.13;11.40;;;;;;;-0.07;99.21;102726.16;5034670;28;20205;-82
2023/01/25 06:45:58;;;;;;;18.07;10.77;;;;;;;-0.07;99.17;102721.78;5032597;28;20221;-82
2023/01/25 06:48:25;;;;;;;18.43;9.60;;;;;;;-0.07;99.31;102729.66;5028926;28;20209;-81
2023/01/25 06:50:54;;;;;;;21.23;11.67;;;;;;;-0.06;99.39;102723.56;5031174;28;20209;-81
2023/01/25 06:53:21;;;;;;;17.30;10.47;;;;;;;-0.05;99.24;102722.69;5026761;28;20214;-82
2023/01/25 06:55:47;;;;;;;12.90;7.87;;;;;;;-0.04;99.33;102727.06;5028264;28;20229;-82
2023/01/25 06:58:15;;;;;;;14.03;8.80;;;;;;;-0.06;99.07;102730.53;5029834;28;20202;-81
2023/01/25 07:00:41;;;;;;;18.40;11.47;;;;;;;-0.07;99.44;102732.25;5026718;28;20241;-81
2023/01/25 07:03:08;;;;;;;21.40;12.00;;;;;;;-0.06;99.43;102727.91;5031919;28;20207;-81
2023/01/25 07:05:34;;;;;;;18.80;11.23;;;;;;;-0.08;99.37;102725.25;5034291;28;20230;-82
2023/01/25 07:08:01;;;;;;;20.40;11.60;;;;;;;-0.07;99.48;102732.25;5033530;28;20213;-82
2023/01/25 07:10:27;;;;;;;18.70;10.50;;;;;;;-0.06;99.54;102723.56;5030229;28;20213;-81
2023/01/25 07:12:53;;;;;;;17.00;9.30;;;;;;;-0.05;99.43;102722.69;5022978;28;20217;-82
2023/01/25 07:15:22;;;;;;;18.57;10.60;;;;;;;-0.05;99.73;102722.69;5030813;28;20742;-82
2023/01/25 07:17:49;;;;;;;19.30;10.70;;;;;;;-0.04;99.45;102726.19;5025476;28;20207;-82
2023/01/25 07:20:16;;;;;;;18.33;9.83;;;;;;;-0.03;99.57;102723.59;5034130;28;20446;-81
2023/01/25 07:22:42;;;;;;;19.30;10.63;;;;;;;-0.02;99.61;102721.84;5027942;28;20206;-82
2023/01/25 07:25:09;;;;;;;24.67;12.63;;;;;;;-0.01;99.71;102732.34;5030836;28;20237;-82
2023/01/25 07:27:36;;;;;;;20.93;12.83;;;;;;;0.00;99.96;102717.53;5030733;28;20717;-81
2023/01/25 07:30:02;;;;;;;20.60;13.07;;;;;;;0.03;99.99;102719.28;5032176;28;20214;-82
2023/01/25 07:32:30;;;;;;;19.60;11.13;;;;;;;0.04;99.88;102718.41;5031356;28;20274;-81
2023/01/25 07:34:57;;;;;;;18.90;11.60;;;;;;;0.03;99.93;102722.78;5029874;28;20677;-81
2023/01/25 07:37:24;;;;;;;16.93;11.00;;;;;;;0.05;100.00;102717.56;5036095;28;20685;-82
2023/01/25 07:39:50;;;;;;;21.30;11.70;;;;;;;0.04;100.00;102711.44;5028515;28;20205;-81
2023/01/25 07:42:17;;;;;;;27.90;14.97;;;;;;;0.05;100.00;102721.06;5024505;28;20222;-83
2023/01/25 07:44:43;;;;;;;21.53;12.00;;;;;;;0.07;100.00;102723.69;5028341;28;20710;-82
2023/01/25 07:47:10;;;;;;;18.13;10.37;;;;;;;0.07;100.00;102721.97;5026568;28;20213;-82
2023/01/25 07:49:38;;;;;;;21.93;11.40;;;;;;;0.08;100.00;102720.22;5030146;28;20199;-81
2023/01/25 07:52:04;;;;;;;18.73;12.13;;;;;;;0.09;100.00;102724.59;5033909;28;20210;-80
2023/01/25 07:54:31;;;;;;;24.40;12.43;;;;;;;0.08;100.00;102721.09;5030699;28;20218;-82
2023/01/25 07:56:57;;;;;;;22.50;12.60;;;;;;;0.07;100.00;102708.88;5035351;28;20229;-81
2023/01/25 07:59:25;;;;;;;22.20;12.77;;;;;;;0.11;100.00;102721.16;5022672;28;20611;-80
2023/01/25 08:01:52;;;;;;;25.40;13.13;;;;;;;0.12;100.00;102715.03;5025591;28;20277;-82
2023/01/25 08:04:18;;;;;;;29.10;14.77;;;;;;;0.14;100.00;102715.06;5023944;28;20285;-82
2023/01/25 08:06:46;;;;;;;31.23;14.93;;;;;;;0.12;100.00;102712.44;5029520;28;20219;-80
2023/01/25 08:09:16;;;;;;;25.67;13.67;;;;;;;0.15;100.00;102711.59;5026396;28;20210;-81
2023/01/25 08:11:43;;;;;;;20.07;11.77;;;;;;;0.15;100.00;102714.22;5024003;28;20748;-82
2023/01/25 08:14:10;;;;;;;27.40;13.63;;;;;;;0.14;100.00;102710.72;5028723;28;20213;-81
2023/01/25 08:16:37;;;;;;;19.33;10.47;;;;;;;0.13;100.00;102710.69;5025301;28;20218;-81
2023/01/25 08:19:04;;;;;;;18.57;10.57;;;;;;;0.13;100.00;102710.69;5030511;28;20210;-81
2023/01/25 08:21:32;;;;;;;21.17;10.57;;;;;;;0.14;100.00;102715.06;5026545;28;20603;-82
2023/01/25 08:24:02;;;;;;;17.93;11.23;;;;;;;0.14;100.00;102702.84;5030852;28;20206;-82
2023/01/25 08:26:29;;;;;;;18.40;10.50;;;;;;;0.16;100.00;102702.88;5024714;28;20226;-81
2023/01/25 08:28:56;;;;;;;23.30;12.10;;;;;;;0.17;100.00;102694.16;5030055;28;20233;-81
2023/01/25 08:31:25;;;;;;;25.00;13.47;;;;;;;0.17;100.00;102704.63;5026333;28;20225;-81
2023/01/25 08:33:52;;;;;;;22.93;11.33;;;;;;;0.17;100.00;102695.03;5030934;28;20571;-80
2023/01/25 08:36:22;;;;;;;26.20;13.60;;;;;;;0.15;100.00;102701.09;5029390;28;20233;-83
2023/01/25 08:38:54;;;;;;;25.27;12.87;;;;;;;0.16;100.00;102695.91;5030541;28;20218;-82
2023/01/25 08:41:22;;;;;;;28.83;14.57;;;;;;;0.18;100.00;102695.91;5026921;28;20215;-82
2023/01/25 08:43:48;;;;;;;19.13;10.47;;;;;;;0.19;100.00;102693.28;5029801;28;20198;-83
2023/01/25 08:46:16;;;;;;;21.03;10.77;;;;;;;0.17;100.00;102683.66;5031049;28;20281;-82
2023/01/25 08:48:43;;;;;;;24.53;13.77;;;;;;;0.15;100.00;102690.63;5029753;28;20207;-82
2023/01/25 08:51:12;;;;;;;28.37;12.60;;;;;;;0.15;100.00;102678.41;5030783;28;20205;-82
2023/01/25 08:53:41;;;;;;;21.50;11.70;;;;;;;0.15;100.00;102672.28;5032460;28;20198;-82
2023/01/25 08:56:14;;;;;;;21.57;12.10;;;;;;;0.12;100.00;102682.72;5030922;28;20222;-81
2023/01/25 08:58:45;;;;;;;24.50;12.30;;;;;;;0.11;100.00;102671.38;5030730;28;20202;-81
2023/01/25 09:01:13;;;;;;;21.03;11.60;;;;;;;0.13;100.00;102671.38;5028695;28;20233;-82
2023/01/25 09:03:41;;;;;;;18.07;10.00;;;;;;;0.12;100.00;102665.28;5033672;28;20587;-82
2023/01/25 09:06:08;;;;;;;22.10;11.73;;;;;;;0.12;100.00;102667.88;5034176;28;20242;-82
2023/01/25 09:08:36;;;;;;;20.77;11.87;;;;;;;0.12;100.00;102661.78;5037942;28;20602;-83
2023/01/25 09:11:04;;;;;;;19.47;10.90;;;;;;;0.12;100.00;102664.38;5030724;28;20203;-81
2023/01/25 09:13:31;;;;;;;14.87;9.53;;;;;;;0.10;100.00;102669.59;5028694;28;20213;-83
2023/01/25 09:16:03;;;;;;;16.97;10.50;;;;;;;0.10;100.00;102674.84;5034333;28;20564;-83
2023/01/25 09:18:31;;;;;;;16.27;10.70;;;;;;;0.11;100.00;102667.88;5033644;28;20206;-81
2023/01/25 09:20:57;;;;;;;17.57;9.13;;;;;;;0.08;100.00;102667.81;5037472;28;20264;-83
2023/01/25 09:23:25;;;;;;;16.27;9.63;;;;;;;0.08;100.00;102659.97;5036783;28;20213;-81
2023/01/25 09:25:57;;;;;;;16.07;10.03;;;;;;;0.07;100.00;102660.81;5033204;28;20226;-81
2023/01/25 09:28:24;;;;;;;19.67;10.40;;;;;;;0.07;100.00;102658.22;5035764;28;20211;-82
2023/01/25 09:30:54;;;;;;;17.00;10.37;;;;;;;0.07;100.00;102660.81;5034514;28;20218;-82
2023/01/25 09:33:26;;;;;;;19.43;10.60;;;;;;;0.07;100.00;102666.06;5038468;28;20210;-83
2023/01/25 09:35:52;;;;;;;18.43;11.23;;;;;;;0.08;100.00;102665.22;5035995;28;20226;-81
2023/01/25 09:38:19;;;;;;;17.80;10.57;;;;;;;0.09;100.00;102662.59;5034800;28;20659;-83
2023/01/25 09:40:57;;;;;;;17.23;10.40;;;;;;;0.11;100.00;102653.03;5036332;28;20233;-82
2023/01/25 09:43:36;;;;;;;14.33;8.50;;;;;;;0.12;100.00;102646.94;5031834;28;20198;-82
2023/01/25 09:46:14;;;;;;;17.13;9.47;;;;;;;0.13;100.00;102647.81;5034570;28;20222;-82
2023/01/25 09:48:49;;;;;;;20.03;12.47;;;;;;;0.15;100.00;102638.22;5033906;28;20617;-83
2023/01/25 09:51:24;;;;;;;23.50;13.40;;;;;;;0.16;100.00;102634.75;5032812;28;20202;-82
2023/01/25 09:53:55;;;;;;;31.80;16.63;;;;;;;0.16;100.00;102624.25;5030110;28;20202;-82
2023/01/25 09:56:25;;;;;;;22.33;11.93;;;;;;;0.16;100.00;102619.03;5032986;28;20249;-83
2023/01/25 09:58:55;;;;;;;19.07;11.47;;;;;;;0.17;100.00;102613.81;5042625;28;20202;-83
2023/01/25 10:01:27;;;;;;;21.43;12.50;;;;;;;0.19;100.00;102616.41;5036675;28;20607;-82
2023/01/25 10:04:00;;;;;;;15.90;10.57;;;;;;;0.20;100.00;102605.06;5041002;28;20199;-83
2023/01/25 10:06:36;;;;;;;19.60;10.27;;;;;;;0.22;100.00;102605.97;5036172;28;20226;-82
2023/01/25 10:09:11;;;;;;;18.13;9.50;;;;;;;0.21;100.00;102601.59;5040110;28;20198;-83
2023/01/25 10:11:38;;;;;;;18.90;11.33;;;;;;;0.20;100.00;102603.34;5033310;28;20202;-83
2023/01/25 10:14:13;;;;;;;19.00;11.27;;;;;;;0.21;100.00;102602.47;5034715;28;20202;-80
2023/01/25 10:16:50;;;;;;;21.07;11.57;;;;;;;0.17;100.00;102589.34;5036315;28;20225;-83
2023/01/25 10:19:23;;;;;;;16.57;10.47;;;;;;;0.18;100.00;102585.88;5032661;28;20206;-82
2023/01/25 10:21:55;;;;;;;17.77;11.27;;;;;;;0.15;100.00;102588.44;5027965;28;20226;-83
2023/01/25 10:24:54;;;;;;;17.93;10.90;;;;;;;0.13;100.00;102577.94;5032294;28;20211;-83
2023/01/25 10:27:31;;;;;;;17.20;10.47;;;;;;;0.16;100.00;102582.34;5024901;28;20211;-79
2023/01/25 10:30:03;;;;;;;23.50;12.60;;;;;;;0.17;100.00;102577.13;5035860;28;20253;-81
2023/01/25 10:32:32;;;;;;;24.40;14.03;;;;;;;0.19;100.00;102564.00;5035951;28;20202;-80
2023/01/25 10:35:14;;;;;;;18.60;10.13;;;;;;;0.21;100.00;102564.91;5037503;28;20210;-79
2023/01/25 10:37:41;;;;;;;14.50;9.60;;;;;;;0.21;100.00;102565.78;5030315;28;20210;-80
2023/01/25 10:40:15;;;;;;;19.47;10.03;;;;;;;0.22;100.00;102559.69;5036132;28;20210;-81
2023/01/25 10:42:48;;;;;;;20.47;10.23;;;;;;;0.20;100.00;102552.66;5036758;28;20218;-81
2023/01/25 10:45:19;;;;;;;14.60;7.90;;;;;;;0.20;100.00;102542.19;5030242;28;20230;-79
2023/01/25 10:47:48;;;;;;;15.20;8.70;;;;;;;0.14;100.00;102543.03;5028053;28;20218;-80
2023/01/25 10:50:45;;;;;;;16.10;8.53;;;;;;;0.13;100.00;102525.56;5033832;28;20210;-81
2023/01/25 10:53:23;;;;;;;13.60;8.33;;;;;;;0.12;100.00;102534.28;5042712;28;20202;-82
2023/01/25 10:55:58;;;;;;;15.23;9.50;;;;;;;0.09;100.00;102533.34;5036369;28;20233;-80
2023/01/25 10:58:35;;;;;;;14.50;8.90;;;;;;;0.10;100.00;102527.25;5040386;28;20213;-80
2023/01/25 11:01:05;;;;;;;13.97;9.83;;;;;;;0.08;100.00;102521.13;5028740;28;20210;-81
2023/01/25 11:03:37;;;;;;;19.67;11.43;;;;;;;0.09;100.00;102517.63;5039790;28;20301;-82
2023/01/25 11:06:06;;;;;;;47.50;27.40;;;;;;;0.09;100.00;102518.53;5036432;28;20234;-82
2023/01/25 11:08:35;;;;;;;18.13;12.33;;;;;;;0.11;100.00;102505.44;5036709;28;20571;-81
2023/01/25 11:11:30;;;;;;;22.93;13.57;;;;;;;0.12;100.00;102510.69;5032760;28;20195;-82
2023/01/25 11:13:57;;;;;;;17.43;11.60;;;;;;;0.09;100.00;102502.81;5036530;28;20243;-82
2023/01/25 11:16:30;;;;;;;22.47;13.77;;;;;;;0.09;100.00;102502.81;5036306;28;20694;-80
2023/01/25 11:18:58;;;;;;;23.93;19.30;;;;;;;0.10;100.00;102488.84;5036234;28;20205;-82
2023/01/25 11:21:28;;;;;;;21.13;17.20;;;;;;;0.13;100.00;102493.22;5035240;28;20687;-79
2023/01/25 11:24:00;;;;;;;25.00;15.10;;;;;;;0.15;100.00;102494.13;5036794;28;20210;-81